sensor_id;sensor_type;location;lat;lon;timestamp;P1;durP1;ratioP1;P2;durP2;ratioP2
11486;SDS011;10510;47.942;9.442;2024-03-02T00:01:09;15.70;;;7.10;;
11486;SDS011;10510;47.942;9.442;2024-03-02T00:03:10;13.77;;;7.43;;
11486;SDS011;10510;47.942;9.442;2024-03-02T00:07:18;15.02;;;7.03;;
11486;SDS011;10510;47.942;9.442;2024-03-02T00:09:18;16.67;;;7.47;;
11486;SDS011;10510;47.942;9.442;2024-03-02T00:11:19;12.75;;;6.15;;
11486;SDS011;10510;47.942;9.442;2024-03-02T00:13:20;12.00;;;6.85;;
11486;SDS011;10510;47.942;9.442;2024-03-02T00:15:29;16.33;;;7.30;;
11486;SDS011;10510;47.942;9.442;2024-03-02T00:17:32;13.35;;;7.47;;
11486;SDS011;10510;47.942;9.442;2024-03-02T00:19:33;13.65;;;7.20;;
11486;SDS011;10510;47.942;9.442;2024-03-02T00:21:33;17.10;;;7.00;;
11486;SDS011;10510;47.942;9.442;2024-03-02T00:23:33;13.32;;;7.32;;
11486;SDS011;10510;47.942;9.442;2024-03-02T00:25:44;12.45;;;6.63;;
11486;SDS011;10510;47.942;9.442;2024-03-02T00:27:48;14.77;;;7.10;;
11486;SDS011;10510;47.942;9.442;2024-03-02T00:29:49;15.25;;;7.82;;
11486;SDS011;10510;47.942;9.442;2024-03-02T00:31:49;18.23;;;8.00;;
11486;SDS011;10510;47.942;9.442;2024-03-02T00:33:49;15.85;;;8.63;;
11486;SDS011;10510;47.942;9.442;2024-03-02T00:35:50;14.70;;;7.80;;
11486;SDS011;10510;47.942;9.442;2024-03-02T00:37:50;16.27;;;8.75;;
11486;SDS011;10510;47.942;9.442;2024-03-02T00:39:51;21.75;;;9.18;;
11486;SDS011;10510;47.942;9.442;2024-03-02T00:41:51;22.58;;;10.10;;
11486;SDS011;10510;47.942;9.442;2024-03-02T00:43:58;20.85;;;9.52;;
11486;SDS011;10510;47.942;9.442;2024-03-02T00:45:59;29.48;;;12.60;;
11486;SDS011;10510;47.942;9.442;2024-03-02T00:47:59;22.67;;;12.00;;
11486;SDS011;10510;47.942;9.442;2024-03-02T00:49:59;17.85;;;8.00;;
11486;SDS011;10510;47.942;9.442;2024-03-02T00:51:59;14.98;;;8.00;;
11486;SDS011;10510;47.942;9.442;2024-03-02T00:54:03;13.90;;;6.95;;
11486;SDS011;10510;47.942;9.442;2024-03-02T00:56:05;14.77;;;6.35;;
11486;SDS011;10510;47.942;9.442;2024-03-02T00:58:09;17.65;;;6.97;;
11486;SDS011;10510;47.942;9.442;2024-03-02T01:00:09;14.85;;;6.97;;
11486;SDS011;10510;47.942;9.442;2024-03-02T01:02:12;14.60;;;7.90;;
11486;SDS011;10510;47.942;9.442;2024-03-02T01:04:12;18.73;;;8.20;;
11486;SDS011;10510;47.942;9.442;2024-03-02T01:06:14;15.85;;;7.93;;
11486;SDS011;10510;47.942;9.442;2024-03-02T01:08:15;17.38;;;8.48;;
11486;SDS011;10510;47.942;9.442;2024-03-02T01:10:15;16.73;;;8.40;;
11486;SDS011;10510;47.942;9.442;2024-03-02T01:12:15;23.38;;;8.95;;
11486;SDS011;10510;47.942;9.442;2024-03-02T01:14:15;18.55;;;9.75;;
11486;SDS011;10510;47.942;9.442;2024-03-02T01:16:16;17.73;;;8.82;;
11486;SDS011;10510;47.942;9.442;2024-03-02T01:18:16;20.52;;;8.55;;
11486;SDS011;10510;47.942;9.442;2024-03-02T01:20:17;17.85;;;8.88;;
11486;SDS011;10510;47.942;9.442;2024-03-02T01:22:17;18.08;;;8.50;;
11486;SDS011;10510;47.942;9.442;2024-03-02T01:24:23;17.38;;;8.80;;
11486;SDS011;10510;47.942;9.442;2024-03-02T01:26:26;23.83;;;8.63;;
11486;SDS011;10510;47.942;9.442;2024-03-02T01:28:27;17.73;;;8.50;;
11486;SDS011;10510;47.942;9.442;2024-03-02T01:30:27;16.90;;;8.38;;
11486;SDS011;10510;47.942;9.442;2024-03-02T01:32:28;22.48;;;9.50;;
11486;SDS011;10510;47.942;9.442;2024-03-02T01:34:28;17.73;;;8.57;;
11486;SDS011;10510;47.942;9.442;2024-03-02T01:36:28;23.98;;;9.77;;
11486;SDS011;10510;47.942;9.442;2024-03-02T01:38:28;18.30;;;9.07;;
11486;SDS011;10510;47.942;9.442;2024-03-02T01:40:29;17.63;;;8.07;;
11486;SDS011;10510;47.942;9.442;2024-03-02T01:42:29;18.92;;;8.35;;
11486;SDS011;10510;47.942;9.442;2024-03-02T01:44:30;19.40;;;8.82;;
11486;SDS011;10510;47.942;9.442;2024-03-02T01:46:31;22.13;;;9.13;;
11486;SDS011;10510;47.942;9.442;2024-03-02T01:48:31;15.82;;;8.10;;
11486;SDS011;10510;47.942;9.442;2024-03-02T01:50:32;22.10;;;8.85;;
11486;SDS011;10510;47.942;9.442;2024-03-02T01:52:33;40.95;;;10.02;;
11486;SDS011;10510;47.942;9.442;2024-03-02T01:54:33;17.48;;;8.25;;
11486;SDS011;10510;47.942;9.442;2024-03-02T01:56:34;17.45;;;7.90;;
11486;SDS011;10510;47.942;9.442;2024-03-02T01:58:34;17.58;;;7.97;;
11486;SDS011;10510;47.942;9.442;2024-03-02T02:00:35;17.90;;;8.18;;
11486;SDS011;10510;47.942;9.442;2024-03-02T02:02:35;15.20;;;8.45;;
11486;SDS011;10510;47.942;9.442;2024-03-02T02:04:35;18.23;;;9.00;;
11486;SDS011;10510;47.942;9.442;2024-03-02T02:06:36;17.10;;;8.25;;
11486;SDS011;10510;47.942;9.442;2024-03-02T02:08:36;16.75;;;8.80;;
11486;SDS011;10510;47.942;9.442;2024-03-02T02:10:37;21.65;;;8.40;;
11486;SDS011;10510;47.942;9.442;2024-03-02T02:12:38;15.13;;;7.45;;
11486;SDS011;10510;47.942;9.442;2024-03-02T02:14:38;15.90;;;7.95;;
11486;SDS011;10510;47.942;9.442;2024-03-02T02:16:40;21.45;;;7.72;;
11486;SDS011;10510;47.942;9.442;2024-03-02T02:18:40;19.10;;;8.85;;
11486;SDS011;10510;47.942;9.442;2024-03-02T02:20:40;18.05;;;8.45;;
11486;SDS011;10510;47.942;9.442;2024-03-02T02:22:40;20.40;;;8.00;;
11486;SDS011;10510;47.942;9.442;2024-03-02T02:24:52;18.42;;;8.98;;
11486;SDS011;10510;47.942;9.442;2024-03-02T02:26:52;19.25;;;9.18;;
11486;SDS011;10510;47.942;9.442;2024-03-02T02:28:52;21.35;;;9.88;;
11486;SDS011;10510;47.942;9.442;2024-03-02T02:30:54;17.35;;;8.55;;
11486;SDS011;10510;47.942;9.442;2024-03-02T02:32:56;20.10;;;9.55;;
11486;SDS011;10510;47.942;9.442;2024-03-02T02:34:56;18.92;;;9.20;;
11486;SDS011;10510;47.942;9.442;2024-03-02T02:36:57;24.30;;;8.57;;
11486;SDS011;10510;47.942;9.442;2024-03-02T02:38:57;18.50;;;8.20;;
11486;SDS011;10510;47.942;9.442;2024-03-02T02:40:59;21.63;;;10.10;;
11486;SDS011;10510;47.942;9.442;2024-03-02T02:43:00;24.33;;;9.82;;
11486;SDS011;10510;47.942;9.442;2024-03-02T02:45:00;20.33;;;9.15;;
11486;SDS011;10510;47.942;9.442;2024-03-02T02:47:00;23.23;;;10.75;;
11486;SDS011;10510;47.942;9.442;2024-03-02T02:49:00;21.48;;;9.02;;
11486;SDS011;10510;47.942;9.442;2024-03-02T02:51:01;18.73;;;9.60;;
11486;SDS011;10510;47.942;9.442;2024-03-02T02:53:01;25.70;;;10.23;;
11486;SDS011;10510;47.942;9.442;2024-03-02T02:55:04;27.80;;;8.85;;
11486;SDS011;10510;47.942;9.442;2024-03-02T02:57:06;29.75;;;9.32;;
11486;SDS011;10510;47.942;9.442;2024-03-02T02:59:06;25.50;;;9.57;;
11486;SDS011;10510;47.942;9.442;2024-03-02T03:01:06;20.55;;;8.85;;
11486;SDS011;10510;47.942;9.442;2024-03-02T03:03:07;16.30;;;8.43;;
11486;SDS011;10510;47.942;9.442;2024-03-02T03:05:12;16.20;;;9.05;;
11486;SDS011;10510;47.942;9.442;2024-03-02T03:07:13;34.63;;;10.70;;
11486;SDS011;10510;47.942;9.442;2024-03-02T03:09:14;16.88;;;8.55;;
11486;SDS011;10510;47.942;9.442;2024-03-02T03:11:14;38.45;;;10.43;;
11486;SDS011;10510;47.942;9.442;2024-03-02T03:13:14;123.30;;;11.45;;
11486;SDS011;10510;47.942;9.442;2024-03-02T03:15:15;100.85;;;13.27;;
11486;SDS011;10510;47.942;9.442;2024-03-02T03:17:16;84.20;;;11.93;;
11486;SDS011;10510;47.942;9.442;2024-03-02T03:19:17;135.25;;;15.00;;
11486;SDS011;10510;47.942;9.442;2024-03-02T03:21:17;125.95;;;15.30;;
11486;SDS011;10510;47.942;9.442;2024-03-02T03:23:17;93.53;;;12.70;;
11486;SDS011;10510;47.942;9.442;2024-03-02T03:25:18;166.80;;;13.77;;
11486;SDS011;10510;47.942;9.442;2024-03-02T03:27:18;111.85;;;12.85;;
11486;SDS011;10510;47.942;9.442;2024-03-02T03:29:19;74.00;;;12.18;;
11486;SDS011;10510;47.942;9.442;2024-03-02T03:31:20;93.20;;;12.18;;
11486;SDS011;10510;47.942;9.442;2024-03-02T03:33:20;77.90;;;11.55;;
11486;SDS011;10510;47.942;9.442;2024-03-02T03:35:20;92.00;;;12.13;;
11486;SDS011;10510;47.942;9.442;2024-03-02T03:37:21;105.60;;;11.60;;
11486;SDS011;10510;47.942;9.442;2024-03-02T03:39:21;78.07;;;11.55;;
11486;SDS011;10510;47.942;9.442;2024-03-02T03:41:21;55.80;;;9.82;;
11486;SDS011;10510;47.942;9.442;2024-03-02T03:43:21;55.35;;;10.07;;
11486;SDS011;10510;47.942;9.442;2024-03-02T03:45:21;45.40;;;8.82;;
11486;SDS011;10510;47.942;9.442;2024-03-02T03:47:22;92.07;;;12.10;;
11486;SDS011;10510;47.942;9.442;2024-03-02T03:49:22;90.93;;;10.88;;
11486;SDS011;10510;47.942;9.442;2024-03-02T03:51:22;92.15;;;12.55;;
11486;SDS011;10510;47.942;9.442;2024-03-02T03:53:22;76.63;;;11.43;;
11486;SDS011;10510;47.942;9.442;2024-03-02T03:55:24;60.28;;;10.05;;
11486;SDS011;10510;47.942;9.442;2024-03-02T03:57:24;50.78;;;10.60;;
11486;SDS011;10510;47.942;9.442;2024-03-02T03:59:24;57.50;;;9.90;;
11486;SDS011;10510;47.942;9.442;2024-03-02T04:01:25;76.68;;;16.63;;
11486;SDS011;10510;47.942;9.442;2024-03-02T04:03:25;60.53;;;11.10;;
11486;SDS011;10510;47.942;9.442;2024-03-02T04:05:25;74.53;;;12.80;;
11486;SDS011;10510;47.942;9.442;2024-03-02T04:07:25;83.20;;;12.90;;
11486;SDS011;10510;47.942;9.442;2024-03-02T04:09:26;35.22;;;9.75;;
11486;SDS011;10510;47.942;9.442;2024-03-02T04:11:26;39.35;;;12.43;;
11486;SDS011;10510;47.942;9.442;2024-03-02T04:13:26;37.13;;;9.55;;
11486;SDS011;10510;47.942;9.442;2024-03-02T04:15:27;42.30;;;10.77;;
11486;SDS011;10510;47.942;9.442;2024-03-02T04:17:27;36.53;;;10.23;;
11486;SDS011;10510;47.942;9.442;2024-03-02T04:19:27;53.35;;;10.80;;
11486;SDS011;10510;47.942;9.442;2024-03-02T04:21:27;36.55;;;11.15;;
11486;SDS011;10510;47.942;9.442;2024-03-02T04:23:28;33.53;;;12.60;;
11486;SDS011;10510;47.942;9.442;2024-03-02T04:25:28;33.58;;;10.02;;
11486;SDS011;10510;47.942;9.442;2024-03-02T04:27:28;20.65;;;9.23;;
11486;SDS011;10510;47.942;9.442;2024-03-02T04:29:28;20.35;;;9.95;;
11486;SDS011;10510;47.942;9.442;2024-03-02T04:31:29;31.20;;;10.55;;
11486;SDS011;10510;47.942;9.442;2024-03-02T04:33:29;25.40;;;9.40;;
11486;SDS011;10510;47.942;9.442;2024-03-02T04:35:29;23.17;;;10.93;;
11486;SDS011;10510;47.942;9.442;2024-03-02T04:37:29;25.00;;;9.68;;
11486;SDS011;10510;47.942;9.442;2024-03-02T04:39:30;39.75;;;11.02;;
11486;SDS011;10510;47.942;9.442;2024-03-02T04:41:31;30.15;;;9.68;;
11486;SDS011;10510;47.942;9.442;2024-03-02T04:43:31;27.17;;;10.63;;
11486;SDS011;10510;47.942;9.442;2024-03-02T04:45:32;32.15;;;10.10;;
11486;SDS011;10510;47.942;9.442;2024-03-02T04:47:32;27.05;;;10.02;;
11486;SDS011;10510;47.942;9.442;2024-03-02T04:49:32;21.50;;;8.98;;
11486;SDS011;10510;47.942;9.442;2024-03-02T04:51:33;20.40;;;9.63;;
11486;SDS011;10510;47.942;9.442;2024-03-02T04:53:34;24.85;;;10.52;;
11486;SDS011;10510;47.942;9.442;2024-03-02T04:55:34;28.05;;;9.70;;
11486;SDS011;10510;47.942;9.442;2024-03-02T04:57:34;22.65;;;10.07;;
11486;SDS011;10510;47.942;9.442;2024-03-02T04:59:34;24.30;;;9.55;;
11486;SDS011;10510;47.942;9.442;2024-03-02T05:01:35;23.70;;;9.63;;
11486;SDS011;10510;47.942;9.442;2024-03-02T05:03:35;25.90;;;9.93;;
11486;SDS011;10510;47.942;9.442;2024-03-02T05:05:35;25.38;;;9.43;;
11486;SDS011;10510;47.942;9.442;2024-03-02T05:07:37;24.13;;;10.57;;
11486;SDS011;10510;47.942;9.442;2024-03-02T05:09:37;22.88;;;10.40;;
11486;SDS011;10510;47.942;9.442;2024-03-02T05:11:37;101.35;;;13.38;;
11486;SDS011;10510;47.942;9.442;2024-03-02T05:13:37;40.15;;;11.57;;
11486;SDS011;10510;47.942;9.442;2024-03-02T05:15:38;115.63;;;12.40;;
11486;SDS011;10510;47.942;9.442;2024-03-02T05:17:38;46.13;;;10.95;;
11486;SDS011;10510;47.942;9.442;2024-03-02T05:19:39;46.17;;;12.13;;
11486;SDS011;10510;47.942;9.442;2024-03-02T05:21:39;58.63;;;11.60;;
11486;SDS011;10510;47.942;9.442;2024-03-02T05:23:40;60.67;;;12.30;;
11486;SDS011;10510;47.942;9.442;2024-03-02T05:25:40;98.13;;;13.00;;
11486;SDS011;10510;47.942;9.442;2024-03-02T05:27:40;47.08;;;11.57;;
11486;SDS011;10510;47.942;9.442;2024-03-02T05:29:41;42.58;;;11.77;;
11486;SDS011;10510;47.942;9.442;2024-03-02T05:31:41;36.17;;;11.50;;
11486;SDS011;10510;47.942;9.442;2024-03-02T05:33:41;54.03;;;11.77;;
11486;SDS011;10510;47.942;9.442;2024-03-02T05:35:43;35.80;;;10.32;;
11486;SDS011;10510;47.942;9.442;2024-03-02T05:37:44;27.25;;;11.50;;
11486;SDS011;10510;47.942;9.442;2024-03-02T05:39:44;45.05;;;11.40;;
11486;SDS011;10510;47.942;9.442;2024-03-02T05:41:44;26.58;;;9.93;;
11486;SDS011;10510;47.942;9.442;2024-03-02T05:43:44;24.05;;;10.65;;
11486;SDS011;10510;47.942;9.442;2024-03-02T05:45:45;30.58;;;11.52;;
11486;SDS011;10510;47.942;9.442;2024-03-02T05:47:45;35.38;;;11.52;;
11486;SDS011;10510;47.942;9.442;2024-03-02T05:49:45;25.52;;;10.90;;
11486;SDS011;10510;47.942;9.442;2024-03-02T05:51:45;59.00;;;12.05;;
11486;SDS011;10510;47.942;9.442;2024-03-02T05:53:46;76.25;;;15.57;;
11486;SDS011;10510;47.942;9.442;2024-03-02T05:55:46;68.65;;;13.93;;
11486;SDS011;10510;47.942;9.442;2024-03-02T05:57:47;103.45;;;15.27;;
11486;SDS011;10510;47.942;9.442;2024-03-02T05:59:59;78.95;;;12.52;;
11486;SDS011;10510;47.942;9.442;2024-03-02T06:01:59;62.70;;;12.57;;
11486;SDS011;10510;47.942;9.442;2024-03-02T06:04:00;97.40;;;13.48;;
11486;SDS011;10510;47.942;9.442;2024-03-02T06:06:00;118.78;;;20.95;;
11486;SDS011;10510;47.942;9.442;2024-03-02T06:08:00;114.53;;;18.20;;
11486;SDS011;10510;47.942;9.442;2024-03-02T06:10:01;70.15;;;13.52;;
11486;SDS011;10510;47.942;9.442;2024-03-02T06:12:01;72.47;;;13.00;;
11486;SDS011;10510;47.942;9.442;2024-03-02T06:14:01;69.50;;;14.65;;
11486;SDS011;10510;47.942;9.442;2024-03-02T06:16:01;79.25;;;14.05;;
11486;SDS011;10510;47.942;9.442;2024-03-02T06:18:02;65.70;;;14.25;;
11486;SDS011;10510;47.942;9.442;2024-03-02T06:20:02;56.38;;;12.55;;
11486;SDS011;10510;47.942;9.442;2024-03-02T06:22:03;78.72;;;13.57;;
11486;SDS011;10510;47.942;9.442;2024-03-02T06:24:04;75.20;;;15.27;;
11486;SDS011;10510;47.942;9.442;2024-03-02T06:26:04;65.20;;;13.57;;
11486;SDS011;10510;47.942;9.442;2024-03-02T06:28:05;94.35;;;17.67;;
11486;SDS011;10510;47.942;9.442;2024-03-02T06:30:05;58.92;;;13.32;;
11486;SDS011;10510;47.942;9.442;2024-03-02T06:32:06;72.88;;;14.65;;
11486;SDS011;10510;47.942;9.442;2024-03-02T06:34:06;59.42;;;14.50;;
11486;SDS011;10510;47.942;9.442;2024-03-02T06:36:06;69.30;;;13.98;;
11486;SDS011;10510;47.942;9.442;2024-03-02T06:38:11;73.80;;;14.32;;
11486;SDS011;10510;47.942;9.442;2024-03-02T06:40:12;64.43;;;13.95;;
11486;SDS011;10510;47.942;9.442;2024-03-02T06:42:12;50.60;;;15.40;;
11486;SDS011;10510;47.942;9.442;2024-03-02T06:44:12;56.17;;;13.50;;
11486;SDS011;10510;47.942;9.442;2024-03-02T06:46:13;83.20;;;23.38;;
11486;SDS011;10510;47.942;9.442;2024-03-02T06:48:15;55.83;;;15.07;;
11486;SDS011;10510;47.942;9.442;2024-03-02T06:50:19;44.33;;;13.32;;
11486;SDS011;10510;47.942;9.442;2024-03-02T06:52:19;30.67;;;12.10;;
11486;SDS011;10510;47.942;9.442;2024-03-02T06:54:21;36.72;;;15.57;;
11486;SDS011;10510;47.942;9.442;2024-03-02T06:56:21;43.03;;;15.30;;
11486;SDS011;10510;47.942;9.442;2024-03-02T06:58:21;39.35;;;15.50;;
11486;SDS011;10510;47.942;9.442;2024-03-02T07:00:22;37.30;;;17.50;;
11486;SDS011;10510;47.942;9.442;2024-03-02T07:02:22;40.25;;;15.15;;
11486;SDS011;10510;47.942;9.442;2024-03-02T07:04:22;34.97;;;14.73;;
11486;SDS011;10510;47.942;9.442;2024-03-02T07:06:23;33.70;;;13.48;;
11486;SDS011;10510;47.942;9.442;2024-03-02T07:08:23;38.90;;;13.80;;
11486;SDS011;10510;47.942;9.442;2024-03-02T07:10:23;51.03;;;17.85;;
11486;SDS011;10510;47.942;9.442;2024-03-02T07:12:24;43.17;;;17.77;;
11486;SDS011;10510;47.942;9.442;2024-03-02T07:14:24;46.17;;;18.33;;
11486;SDS011;10510;47.942;9.442;2024-03-02T07:16:44;74.10;;;24.77;;
11486;SDS011;10510;47.942;9.442;2024-03-02T07:18:45;51.58;;;20.42;;
11486;SDS011;10510;47.942;9.442;2024-03-02T07:20:51;55.92;;;23.15;;
11486;SDS011;10510;47.942;9.442;2024-03-02T07:22:51;52.67;;;22.08;;
11486;SDS011;10510;47.942;9.442;2024-03-02T07:24:51;49.70;;;21.63;;
11486;SDS011;10510;47.942;9.442;2024-03-02T07:26:51;43.88;;;15.80;;
11486;SDS011;10510;47.942;9.442;2024-03-02T07:28:52;44.15;;;17.10;;
11486;SDS011;10510;47.942;9.442;2024-03-02T07:30:58;44.15;;;16.05;;
11486;SDS011;10510;47.942;9.442;2024-03-02T07:33:03;43.67;;;17.23;;
11486;SDS011;10510;47.942;9.442;2024-03-02T07:35:04;96.38;;;30.00;;
11486;SDS011;10510;47.942;9.442;2024-03-02T07:37:05;53.78;;;21.13;;
11486;SDS011;10510;47.942;9.442;2024-03-02T07:39:05;56.70;;;19.83;;
11486;SDS011;10510;47.942;9.442;2024-03-02T07:41:08;59.38;;;18.27;;
11486;SDS011;10510;47.942;9.442;2024-03-02T07:43:08;58.05;;;20.10;;
11486;SDS011;10510;47.942;9.442;2024-03-02T07:45:09;61.53;;;20.63;;
11486;SDS011;10510;47.942;9.442;2024-03-02T07:47:09;72.35;;;22.35;;
11486;SDS011;10510;47.942;9.442;2024-03-02T07:49:09;85.93;;;26.95;;
11486;SDS011;10510;47.942;9.442;2024-03-02T07:51:10;99.63;;;27.55;;
11486;SDS011;10510;47.942;9.442;2024-03-02T07:53:10;136.27;;;24.50;;
11486;SDS011;10510;47.942;9.442;2024-03-02T07:55:11;135.40;;;19.35;;
11486;SDS011;10510;47.942;9.442;2024-03-02T07:57:11;187.52;;;53.95;;
11486;SDS011;10510;47.942;9.442;2024-03-02T07:59:12;140.75;;;22.55;;
11486;SDS011;10510;47.942;9.442;2024-03-02T08:01:12;139.15;;;22.52;;
11486;SDS011;10510;47.942;9.442;2024-03-02T08:03:13;121.68;;;20.67;;
11486;SDS011;10510;47.942;9.442;2024-03-02T08:05:13;153.00;;;31.60;;
11486;SDS011;10510;47.942;9.442;2024-03-02T08:07:14;132.15;;;26.85;;
11486;SDS011;10510;47.942;9.442;2024-03-02T08:09:14;145.73;;;24.02;;
11486;SDS011;10510;47.942;9.442;2024-03-02T08:11:14;142.30;;;22.85;;
11486;SDS011;10510;47.942;9.442;2024-03-02T08:13:15;113.15;;;20.63;;
11486;SDS011;10510;47.942;9.442;2024-03-02T08:15:15;111.75;;;17.75;;
11486;SDS011;10510;47.942;9.442;2024-03-02T08:17:16;123.47;;;15.75;;
11486;SDS011;10510;47.942;9.442;2024-03-02T08:19:16;114.72;;;13.90;;
11486;SDS011;10510;47.942;9.442;2024-03-02T08:21:16;102.38;;;18.08;;
11486;SDS011;10510;47.942;9.442;2024-03-02T08:23:17;145.63;;;15.25;;
11486;SDS011;10510;47.942;9.442;2024-03-02T08:25:17;91.68;;;15.88;;
11486;SDS011;10510;47.942;9.442;2024-03-02T08:27:17;97.47;;;14.90;;
11486;SDS011;10510;47.942;9.442;2024-03-02T08:29:18;76.13;;;14.80;;
11486;SDS011;10510;47.942;9.442;2024-03-02T08:31:18;91.82;;;15.32;;
11486;SDS011;10510;47.942;9.442;2024-03-02T08:33:18;86.13;;;16.05;;
11486;SDS011;10510;47.942;9.442;2024-03-02T08:35:19;114.82;;;16.73;;
11486;SDS011;10510;47.942;9.442;2024-03-02T08:37:19;67.47;;;17.90;;
11486;SDS011;10510;47.942;9.442;2024-03-02T08:39:19;101.15;;;23.55;;
11486;SDS011;10510;47.942;9.442;2024-03-02T08:41:20;97.30;;;23.90;;
11486;SDS011;10510;47.942;9.442;2024-03-02T08:43:21;65.05;;;18.90;;
11486;SDS011;10510;47.942;9.442;2024-03-02T08:45:22;72.50;;;19.58;;
11486;SDS011;10510;47.942;9.442;2024-03-02T08:47:22;76.82;;;19.73;;
11486;SDS011;10510;47.942;9.442;2024-03-02T08:49:23;72.05;;;20.25;;
11486;SDS011;10510;47.942;9.442;2024-03-02T08:51:23;87.72;;;19.63;;
11486;SDS011;10510;47.942;9.442;2024-03-02T08:53:24;135.88;;;18.90;;
11486;SDS011;10510;47.942;9.442;2024-03-02T08:55:24;109.45;;;16.48;;
11486;SDS011;10510;47.942;9.442;2024-03-02T08:57:24;123.53;;;19.10;;
11486;SDS011;10510;47.942;9.442;2024-03-02T08:59:25;75.53;;;14.20;;
11486;SDS011;10510;47.942;9.442;2024-03-02T09:01:27;52.35;;;14.45;;
11486;SDS011;10510;47.942;9.442;2024-03-02T09:03:28;81.20;;;13.90;;
11486;SDS011;10510;47.942;9.442;2024-03-02T09:05:28;54.92;;;14.40;;
11486;SDS011;10510;47.942;9.442;2024-03-02T09:07:28;49.42;;;14.10;;
11486;SDS011;10510;47.942;9.442;2024-03-02T09:09:29;43.85;;;13.82;;
11486;SDS011;10510;47.942;9.442;2024-03-02T09:11:29;56.17;;;14.13;;
11486;SDS011;10510;47.942;9.442;2024-03-02T09:13:29;73.93;;;16.75;;
11486;SDS011;10510;47.942;9.442;2024-03-02T09:15:29;55.13;;;14.85;;
11486;SDS011;10510;47.942;9.442;2024-03-02T09:17:30;45.15;;;14.82;;
11486;SDS011;10510;47.942;9.442;2024-03-02T09:19:30;45.40;;;15.65;;
11486;SDS011;10510;47.942;9.442;2024-03-02T09:21:30;48.47;;;15.73;;
11486;SDS011;10510;47.942;9.442;2024-03-02T09:23:31;54.80;;;16.48;;
11486;SDS011;10510;47.942;9.442;2024-03-02T09:25:31;72.60;;;28.30;;
11486;SDS011;10510;47.942;9.442;2024-03-02T09:27:31;36.67;;;15.60;;
11486;SDS011;10510;47.942;9.442;2024-03-02T09:29:31;39.65;;;14.43;;
11486;SDS011;10510;47.942;9.442;2024-03-02T09:31:32;31.10;;;12.02;;
11486;SDS011;10510;47.942;9.442;2024-03-02T09:33:32;30.77;;;13.25;;
11486;SDS011;10510;47.942;9.442;2024-03-02T09:35:32;26.08;;;12.93;;
11486;SDS011;10510;47.942;9.442;2024-03-02T09:37:32;24.80;;;12.23;;
11486;SDS011;10510;47.942;9.442;2024-03-02T09:39:33;31.13;;;13.18;;
11486;SDS011;10510;47.942;9.442;2024-03-02T09:41:33;25.05;;;12.80;;
11486;SDS011;10510;47.942;9.442;2024-03-02T09:43:33;25.27;;;13.80;;
11486;SDS011;10510;47.942;9.442;2024-03-02T09:45:34;27.15;;;13.80;;
11486;SDS011;10510;47.942;9.442;2024-03-02T09:47:34;19.13;;;10.73;;
11486;SDS011;10510;47.942;9.442;2024-03-02T09:49:34;24.95;;;14.13;;
11486;SDS011;10510;47.942;9.442;2024-03-02T09:51:36;26.80;;;16.38;;
11486;SDS011;10510;47.942;9.442;2024-03-02T09:53:37;21.15;;;11.57;;
11486;SDS011;10510;47.942;9.442;2024-03-02T09:55:37;26.10;;;12.20;;
11486;SDS011;10510;47.942;9.442;2024-03-02T09:57:38;21.10;;;11.70;;
11486;SDS011;10510;47.942;9.442;2024-03-02T09:59:42;20.40;;;12.13;;
11486;SDS011;10510;47.942;9.442;2024-03-02T10:04:15;23.95;;;13.73;;
11486;SDS011;10510;47.942;9.442;2024-03-02T10:06:20;15.90;;;10.57;;
11486;SDS011;10510;47.942;9.442;2024-03-02T10:08:24;16.30;;;10.32;;
11486;SDS011;10510;47.942;9.442;2024-03-02T10:10:26;16.88;;;9.68;;
11486;SDS011;10510;47.942;9.442;2024-03-02T10:12:34;17.52;;;10.52;;
11486;SDS011;10510;47.942;9.442;2024-03-02T10:14:35;19.05;;;11.63;;
11486;SDS011;10510;47.942;9.442;2024-03-02T10:16:36;13.80;;;8.70;;
11486;SDS011;10510;47.942;9.442;2024-03-02T10:18:37;12.50;;;8.27;;
11486;SDS011;10510;47.942;9.442;2024-03-02T10:20:37;14.30;;;9.73;;
11486;SDS011;10510;47.942;9.442;2024-03-02T10:22:38;12.38;;;7.75;;
11486;SDS011;10510;47.942;9.442;2024-03-02T10:24:40;11.77;;;7.30;;
11486;SDS011;10510;47.942;9.442;2024-03-02T10:26:44;14.02;;;8.32;;
11486;SDS011;10510;47.942;9.442;2024-03-02T10:28:46;16.40;;;9.52;;
11486;SDS011;10510;47.942;9.442;2024-03-02T10:30:47;8.93;;;6.28;;
11486;SDS011;10510;47.942;9.442;2024-03-02T10:32:49;10.18;;;6.68;;
11486;SDS011;10510;47.942;9.442;2024-03-02T10:34:49;7.43;;;4.95;;
11486;SDS011;10510;47.942;9.442;2024-03-02T10:36:50;9.85;;;6.53;;
11486;SDS011;10510;47.942;9.442;2024-03-02T10:38:51;9.48;;;5.50;;
11486;SDS011;10510;47.942;9.442;2024-03-02T10:40:55;8.70;;;5.13;;
11486;SDS011;10510;47.942;9.442;2024-03-02T10:43:00;8.23;;;5.78;;
11486;SDS011;10510;47.942;9.442;2024-03-02T10:45:03;10.07;;;5.22;;
11486;SDS011;10510;47.942;9.442;2024-03-02T10:47:04;8.15;;;5.18;;
11486;SDS011;10510;47.942;9.442;2024-03-02T10:49:05;6.93;;;4.85;;
11486;SDS011;10510;47.942;9.442;2024-03-02T10:51:06;9.02;;;3.90;;
11486;SDS011;10510;47.942;9.442;2024-03-02T10:53:07;8.25;;;4.32;;
11486;SDS011;10510;47.942;9.442;2024-03-02T10:55:11;6.80;;;4.18;;
11486;SDS011;10510;47.942;9.442;2024-03-02T10:57:12;6.22;;;4.55;;
11486;SDS011;10510;47.942;9.442;2024-03-02T11:01:26;8.32;;;4.85;;
11486;SDS011;10510;47.942;9.442;2024-03-02T11:03:27;5.97;;;4.32;;
11486;SDS011;10510;47.942;9.442;2024-03-02T11:05:31;7.03;;;4.32;;
11486;SDS011;10510;47.942;9.442;2024-03-02T11:07:34;6.35;;;4.03;;
11486;SDS011;10510;47.942;9.442;2024-03-02T11:09:44;7.47;;;4.72;;
11486;SDS011;10510;47.942;9.442;2024-03-02T11:11:54;5.57;;;3.47;;
11486;SDS011;10510;47.942;9.442;2024-03-02T11:14:04;8.27;;;4.95;;
11486;SDS011;10510;47.942;9.442;2024-03-02T11:16:17;7.47;;;5.22;;
11486;SDS011;10510;47.942;9.442;2024-03-02T11:18:34;4.03;;;2.77;;
11486;SDS011;10510;47.942;9.442;2024-03-02T11:20:36;3.65;;;2.80;;
11486;SDS011;10510;47.942;9.442;2024-03-02T11:22:38;2.55;;;2.25;;
11486;SDS011;10510;47.942;9.442;2024-03-02T11:24:39;3.45;;;2.92;;
11486;SDS011;10510;47.942;9.442;2024-03-02T11:26:48;3.65;;;2.10;;
11486;SDS011;10510;47.942;9.442;2024-03-02T11:28:48;4.47;;;3.08;;
11486;SDS011;10510;47.942;9.442;2024-03-02T11:30:48;3.10;;;2.08;;
11486;SDS011;10510;47.942;9.442;2024-03-02T11:32:54;11.27;;;3.45;;
11486;SDS011;10510;47.942;9.442;2024-03-02T11:34:55;3.40;;;2.80;;
11486;SDS011;10510;47.942;9.442;2024-03-02T11:36:56;2.50;;;2.25;;
11486;SDS011;10510;47.942;9.442;2024-03-02T11:38:56;3.08;;;2.10;;
11486;SDS011;10510;47.942;9.442;2024-03-02T11:40:56;5.93;;;2.53;;
11486;SDS011;10510;47.942;9.442;2024-03-02T11:42:57;3.70;;;2.38;;
11486;SDS011;10510;47.942;9.442;2024-03-02T11:44:59;2.88;;;1.92;;
11486;SDS011;10510;47.942;9.442;2024-03-02T11:47:06;4.72;;;2.17;;
11486;SDS011;10510;47.942;9.442;2024-03-02T11:49:08;4.55;;;2.50;;
11486;SDS011;10510;47.942;9.442;2024-03-02T11:51:09;3.88;;;2.33;;
11486;SDS011;10510;47.942;9.442;2024-03-02T11:53:11;5.85;;;3.55;;
11486;SDS011;10510;47.942;9.442;2024-03-02T11:55:12;6.10;;;3.97;;
11486;SDS011;10510;47.942;9.442;2024-03-02T11:57:15;3.38;;;2.63;;
11486;SDS011;10510;47.942;9.442;2024-03-02T11:59:16;11.07;;;6.63;;
11486;SDS011;10510;47.942;9.442;2024-03-02T12:01:17;3.58;;;2.30;;